sensor_id;sensor_type;location;lat;lon;timestamp;P1;durP1;ratioP1;P2;durP2;ratioP2
8159;SDS011;27404;52.398;9.646;2024-01-06T00:02:05;28.20;;;15.70;;
8159;SDS011;27404;52.398;9.646;2024-01-06T00:04:30;34.17;;;17.80;;
8159;SDS011;27404;52.398;9.646;2024-01-06T00:06:56;31.03;;;16.57;;
8159;SDS011;27404;52.398;9.646;2024-01-06T00:09:21;31.27;;;16.57;;
8159;SDS011;27404;52.398;9.646;2024-01-06T00:11:47;28.53;;;16.37;;
8159;SDS011;27404;52.398;9.646;2024-01-06T00:14:12;26.73;;;15.60;;
8159;SDS011;27404;52.398;9.646;2024-01-06T00:16:38;31.97;;;16.80;;
8159;SDS011;27404;52.398;9.646;2024-01-06T00:19:03;30.27;;;16.77;;
8159;SDS011;27404;52.398;9.646;2024-01-06T00:21:28;28.73;;;16.13;;
8159;SDS011;27404;52.398;9.646;2024-01-06T00:23:54;29.60;;;16.00;;
8159;SDS011;27404;52.398;9.646;2024-01-06T00:26:21;32.40;;;16.77;;
8159;SDS011;27404;52.398;9.646;2024-01-06T00:28:47;29.63;;;14.80;;
8159;SDS011;27404;52.398;9.646;2024-01-06T00:31:14;30.67;;;16.50;;
8159;SDS011;27404;52.398;9.646;2024-01-06T00:33:42;28.03;;;15.67;;
8159;SDS011;27404;52.398;9.646;2024-01-06T00:36:07;30.90;;;16.30;;
8159;SDS011;27404;52.398;9.646;2024-01-06T00:38:34;29.27;;;15.93;;
8159;SDS011;27404;52.398;9.646;2024-01-06T00:41:00;30.27;;;16.07;;
8159;SDS011;27404;52.398;9.646;2024-01-06T00:43:26;30.73;;;16.00;;
8159;SDS011;27404;52.398;9.646;2024-01-06T00:45:51;29.50;;;15.67;;
8159;SDS011;27404;52.398;9.646;2024-01-06T00:48:17;28.67;;;15.50;;
8159;SDS011;27404;52.398;9.646;2024-01-06T00:50:42;30.50;;;16.40;;
8159;SDS011;27404;52.398;9.646;2024-01-06T00:53:08;29.80;;;15.87;;
8159;SDS011;27404;52.398;9.646;2024-01-06T00:55:33;25.23;;;14.77;;
8159;SDS011;27404;52.398;9.646;2024-01-06T00:57:59;27.07;;;15.07;;
8159;SDS011;27404;52.398;9.646;2024-01-06T01:00:24;31.73;;;15.70;;
8159;SDS011;27404;52.398;9.646;2024-01-06T01:02:50;27.13;;;15.47;;
8159;SDS011;27404;52.398;9.646;2024-01-06T01:05:16;29.60;;;16.53;;
8159;SDS011;27404;52.398;9.646;2024-01-06T01:07:41;29.70;;;16.17;;
8159;SDS011;27404;52.398;9.646;2024-01-06T01:10:07;25.43;;;14.80;;
8159;SDS011;27404;52.398;9.646;2024-01-06T01:12:33;27.07;;;15.60;;
8159;SDS011;27404;52.398;9.646;2024-01-06T01:14:59;28.97;;;14.57;;
8159;SDS011;27404;52.398;9.646;2024-01-06T01:17:24;31.87;;;16.20;;
8159;SDS011;27404;52.398;9.646;2024-01-06T01:19:50;26.93;;;14.90;;
8159;SDS011;27404;52.398;9.646;2024-01-06T01:22:15;32.10;;;15.33;;
8159;SDS011;27404;52.398;9.646;2024-01-06T01:24:41;29.77;;;16.10;;
8159;SDS011;27404;52.398;9.646;2024-01-06T01:27:07;28.60;;;15.50;;
8159;SDS011;27404;52.398;9.646;2024-01-06T01:29:32;28.13;;;15.53;;
8159;SDS011;27404;52.398;9.646;2024-01-06T01:31:58;25.33;;;15.23;;
8159;SDS011;27404;52.398;9.646;2024-01-06T01:34:23;26.57;;;14.97;;
8159;SDS011;27404;52.398;9.646;2024-01-06T01:36:48;25.87;;;13.87;;
8159;SDS011;27404;52.398;9.646;2024-01-06T01:39:14;31.80;;;15.60;;
8159;SDS011;27404;52.398;9.646;2024-01-06T01:41:40;29.67;;;15.53;;
8159;SDS011;27404;52.398;9.646;2024-01-06T01:44:05;27.07;;;15.30;;
8159;SDS011;27404;52.398;9.646;2024-01-06T01:46:31;30.97;;;15.53;;
8159;SDS011;27404;52.398;9.646;2024-01-06T01:48:58;24.03;;;13.90;;
8159;SDS011;27404;52.398;9.646;2024-01-06T01:51:29;27.17;;;15.00;;
8159;SDS011;27404;52.398;9.646;2024-01-06T01:53:57;26.57;;;15.60;;
8159;SDS011;27404;52.398;9.646;2024-01-06T01:56:24;25.07;;;15.07;;
8159;SDS011;27404;52.398;9.646;2024-01-06T01:58:51;27.13;;;14.97;;
8159;SDS011;27404;52.398;9.646;2024-01-06T02:01:17;28.77;;;14.37;;
8159;SDS011;27404;52.398;9.646;2024-01-06T02:03:42;26.27;;;14.57;;
8159;SDS011;27404;52.398;9.646;2024-01-06T02:06:11;25.93;;;14.80;;
8159;SDS011;27404;52.398;9.646;2024-01-06T02:08:36;28.03;;;15.50;;
8159;SDS011;27404;52.398;9.646;2024-01-06T02:11:02;28.20;;;14.80;;
8159;SDS011;27404;52.398;9.646;2024-01-06T02:13:34;26.47;;;15.00;;
8159;SDS011;27404;52.398;9.646;2024-01-06T02:16:04;26.93;;;14.20;;
8159;SDS011;27404;52.398;9.646;2024-01-06T02:18:31;25.87;;;14.90;;
8159;SDS011;27404;52.398;9.646;2024-01-06T02:21:00;25.47;;;14.23;;
8159;SDS011;27404;52.398;9.646;2024-01-06T02:23:30;29.60;;;14.90;;
8159;SDS011;27404;52.398;9.646;2024-01-06T02:25:56;25.77;;;14.93;;
8159;SDS011;27404;52.398;9.646;2024-01-06T02:28:22;26.33;;;14.70;;
8159;SDS011;27404;52.398;9.646;2024-01-06T02:30:47;28.10;;;14.80;;
8159;SDS011;27404;52.398;9.646;2024-01-06T02:33:13;31.00;;;15.17;;
8159;SDS011;27404;52.398;9.646;2024-01-06T02:35:39;27.23;;;14.67;;
8159;SDS011;27404;52.398;9.646;2024-01-06T02:38:05;28.37;;;14.07;;
8159;SDS011;27404;52.398;9.646;2024-01-06T02:40:31;25.90;;;14.00;;
8159;SDS011;27404;52.398;9.646;2024-01-06T02:42:57;23.90;;;13.97;;
8159;SDS011;27404;52.398;9.646;2024-01-06T02:45:23;26.43;;;14.40;;
8159;SDS011;27404;52.398;9.646;2024-01-06T02:47:48;25.40;;;15.10;;
8159;SDS011;27404;52.398;9.646;2024-01-06T02:50:14;27.60;;;14.63;;
8159;SDS011;27404;52.398;9.646;2024-01-06T02:52:39;22.67;;;13.30;;
8159;SDS011;27404;52.398;9.646;2024-01-06T02:55:05;27.43;;;14.07;;
8159;SDS011;27404;52.398;9.646;2024-01-06T02:57:31;25.03;;;13.43;;
8159;SDS011;27404;52.398;9.646;2024-01-06T02:59:56;27.93;;;13.63;;
8159;SDS011;27404;52.398;9.646;2024-01-06T03:02:22;27.33;;;14.03;;
8159;SDS011;27404;52.398;9.646;2024-01-06T03:04:47;27.00;;;14.40;;
8159;SDS011;27404;52.398;9.646;2024-01-06T03:07:13;23.57;;;13.53;;
8159;SDS011;27404;52.398;9.646;2024-01-06T03:09:38;23.47;;;13.47;;
8159;SDS011;27404;52.398;9.646;2024-01-06T03:12:04;28.33;;;13.83;;
8159;SDS011;27404;52.398;9.646;2024-01-06T03:14:31;26.90;;;14.87;;
8159;SDS011;27404;52.398;9.646;2024-01-06T03:16:56;25.17;;;14.70;;
8159;SDS011;27404;52.398;9.646;2024-01-06T03:19:23;24.13;;;13.43;;
8159;SDS011;27404;52.398;9.646;2024-01-06T03:21:51;23.67;;;13.27;;
8159;SDS011;27404;52.398;9.646;2024-01-06T03:24:16;25.93;;;14.40;;
8159;SDS011;27404;52.398;9.646;2024-01-06T03:26:42;28.03;;;14.17;;
8159;SDS011;27404;52.398;9.646;2024-01-06T03:29:07;24.20;;;13.63;;
8159;SDS011;27404;52.398;9.646;2024-01-06T03:31:33;23.53;;;13.73;;
8159;SDS011;27404;52.398;9.646;2024-01-06T03:33:58;27.00;;;13.90;;
8159;SDS011;27404;52.398;9.646;2024-01-06T03:36:23;26.60;;;14.27;;
8159;SDS011;27404;52.398;9.646;2024-01-06T03:38:49;28.63;;;14.27;;
8159;SDS011;27404;52.398;9.646;2024-01-06T03:41:14;26.53;;;14.50;;
8159;SDS011;27404;52.398;9.646;2024-01-06T03:43:40;26.10;;;14.20;;
8159;SDS011;27404;52.398;9.646;2024-01-06T03:46:05;26.07;;;13.90;;
8159;SDS011;27404;52.398;9.646;2024-01-06T03:48:31;25.40;;;14.00;;
8159;SDS011;27404;52.398;9.646;2024-01-06T03:50:57;27.43;;;14.63;;
8159;SDS011;27404;52.398;9.646;2024-01-06T03:53:24;24.90;;;13.70;;
8159;SDS011;27404;52.398;9.646;2024-01-06T03:55:49;26.53;;;13.83;;
8159;SDS011;27404;52.398;9.646;2024-01-06T03:58:15;26.43;;;14.23;;
8159;SDS011;27404;52.398;9.646;2024-01-06T04:00:40;26.57;;;14.23;;
8159;SDS011;27404;52.398;9.646;2024-01-06T04:03:06;27.03;;;13.27;;
8159;SDS011;27404;52.398;9.646;2024-01-06T04:05:32;26.00;;;13.93;;
8159;SDS011;27404;52.398;9.646;2024-01-06T04:07:57;26.93;;;13.63;;
8159;SDS011;27404;52.398;9.646;2024-01-06T04:10:22;27.27;;;14.73;;
8159;SDS011;27404;52.398;9.646;2024-01-06T04:12:48;27.93;;;14.17;;
8159;SDS011;27404;52.398;9.646;2024-01-06T04:15:14;29.10;;;14.83;;
8159;SDS011;27404;52.398;9.646;2024-01-06T04:17:39;26.37;;;14.40;;
8159;SDS011;27404;52.398;9.646;2024-01-06T04:20:05;28.60;;;14.83;;
8159;SDS011;27404;52.398;9.646;2024-01-06T04:22:30;28.47;;;14.83;;
8159;SDS011;27404;52.398;9.646;2024-01-06T04:24:56;29.00;;;14.87;;
8159;SDS011;27404;52.398;9.646;2024-01-06T04:27:21;30.70;;;15.80;;
8159;SDS011;27404;52.398;9.646;2024-01-06T04:29:47;29.40;;;14.33;;
8159;SDS011;27404;52.398;9.646;2024-01-06T04:32:12;29.70;;;14.53;;
8159;SDS011;27404;52.398;9.646;2024-01-06T04:34:38;29.23;;;14.53;;
8159;SDS011;27404;52.398;9.646;2024-01-06T04:37:03;27.20;;;14.73;;
8159;SDS011;27404;52.398;9.646;2024-01-06T04:39:28;30.23;;;15.33;;
8159;SDS011;27404;52.398;9.646;2024-01-06T04:41:54;30.47;;;16.00;;
8159;SDS011;27404;52.398;9.646;2024-01-06T04:44:20;31.23;;;14.73;;
8159;SDS011;27404;52.398;9.646;2024-01-06T04:46:46;30.10;;;14.17;;
8159;SDS011;27404;52.398;9.646;2024-01-06T04:49:11;32.97;;;16.43;;
8159;SDS011;27404;52.398;9.646;2024-01-06T04:51:37;31.10;;;15.80;;
8159;SDS011;27404;52.398;9.646;2024-01-06T04:54:02;32.53;;;16.23;;
8159;SDS011;27404;52.398;9.646;2024-01-06T04:56:28;31.57;;;15.93;;
8159;SDS011;27404;52.398;9.646;2024-01-06T04:58:53;27.47;;;14.47;;
8159;SDS011;27404;52.398;9.646;2024-01-06T05:01:19;31.97;;;16.00;;
8159;SDS011;27404;52.398;9.646;2024-01-06T05:03:45;33.67;;;16.27;;
8159;SDS011;27404;52.398;9.646;2024-01-06T05:06:10;31.63;;;15.67;;
8159;SDS011;27404;52.398;9.646;2024-01-06T05:08:36;33.33;;;15.47;;
8159;SDS011;27404;52.398;9.646;2024-01-06T05:11:06;33.63;;;15.83;;
8159;SDS011;27404;52.398;9.646;2024-01-06T05:13:32;32.10;;;15.80;;
8159;SDS011;27404;52.398;9.646;2024-01-06T05:15:57;31.07;;;16.37;;
8159;SDS011;27404;52.398;9.646;2024-01-06T05:18:23;33.07;;;16.93;;
8159;SDS011;27404;52.398;9.646;2024-01-06T05:20:48;29.90;;;15.33;;
8159;SDS011;27404;52.398;9.646;2024-01-06T05:23:13;28.57;;;14.80;;
8159;SDS011;27404;52.398;9.646;2024-01-06T05:25:39;34.03;;;15.27;;
8159;SDS011;27404;52.398;9.646;2024-01-06T05:28:04;28.50;;;15.10;;
8159;SDS011;27404;52.398;9.646;2024-01-06T05:30:30;24.27;;;14.07;;
8159;SDS011;27404;52.398;9.646;2024-01-06T05:32:55;29.00;;;15.07;;
8159;SDS011;27404;52.398;9.646;2024-01-06T05:35:21;28.17;;;15.53;;
8159;SDS011;27404;52.398;9.646;2024-01-06T05:37:46;27.23;;;14.27;;
8159;SDS011;27404;52.398;9.646;2024-01-06T05:40:12;31.30;;;15.70;;
8159;SDS011;27404;52.398;9.646;2024-01-06T05:42:39;30.87;;;14.93;;
8159;SDS011;27404;52.398;9.646;2024-01-06T05:45:05;30.17;;;14.90;;
8159;SDS011;27404;52.398;9.646;2024-01-06T05:47:31;29.50;;;15.30;;
8159;SDS011;27404;52.398;9.646;2024-01-06T05:49:56;32.10;;;16.10;;
8159;SDS011;27404;52.398;9.646;2024-01-06T05:52:22;28.60;;;15.60;;
8159;SDS011;27404;52.398;9.646;2024-01-06T05:54:48;31.23;;;15.43;;
8159;SDS011;27404;52.398;9.646;2024-01-06T05:57:14;32.87;;;15.77;;
8159;SDS011;27404;52.398;9.646;2024-01-06T05:59:39;29.77;;;15.57;;
8159;SDS011;27404;52.398;9.646;2024-01-06T06:02:05;33.87;;;14.97;;
8159;SDS011;27404;52.398;9.646;2024-01-06T06:04:31;33.20;;;16.13;;
8159;SDS011;27404;52.398;9.646;2024-01-06T06:06:56;37.70;;;17.43;;
8159;SDS011;27404;52.398;9.646;2024-01-06T06:09:22;36.17;;;16.90;;
8159;SDS011;27404;52.398;9.646;2024-01-06T06:11:47;34.93;;;17.27;;
8159;SDS011;27404;52.398;9.646;2024-01-06T06:14:13;42.83;;;20.80;;
8159;SDS011;27404;52.398;9.646;2024-01-06T06:16:39;38.00;;;19.33;;
8159;SDS011;27404;52.398;9.646;2024-01-06T06:19:04;37.10;;;17.30;;
8159;SDS011;27404;52.398;9.646;2024-01-06T06:21:30;36.23;;;17.60;;
8159;SDS011;27404;52.398;9.646;2024-01-06T06:23:55;40.63;;;18.67;;
8159;SDS011;27404;52.398;9.646;2024-01-06T06:26:20;36.43;;;17.93;;
8159;SDS011;27404;52.398;9.646;2024-01-06T06:28:46;41.17;;;18.50;;
8159;SDS011;27404;52.398;9.646;2024-01-06T06:31:11;38.03;;;18.60;;
8159;SDS011;27404;52.398;9.646;2024-01-06T06:33:37;39.03;;;18.37;;
8159;SDS011;27404;52.398;9.646;2024-01-06T06:36:02;40.17;;;18.30;;
8159;SDS011;27404;52.398;9.646;2024-01-06T06:38:28;38.80;;;16.73;;
8159;SDS011;27404;52.398;9.646;2024-01-06T06:40:54;40.00;;;17.70;;
8159;SDS011;27404;52.398;9.646;2024-01-06T06:43:20;43.73;;;18.73;;
8159;SDS011;27404;52.398;9.646;2024-01-06T06:45:46;36.13;;;17.43;;
8159;SDS011;27404;52.398;9.646;2024-01-06T06:48:11;41.50;;;18.97;;
8159;SDS011;27404;52.398;9.646;2024-01-06T06:50:36;46.47;;;18.87;;
8159;SDS011;27404;52.398;9.646;2024-01-06T06:53:02;42.37;;;18.63;;
8159;SDS011;27404;52.398;9.646;2024-01-06T06:55:28;45.23;;;18.80;;
8159;SDS011;27404;52.398;9.646;2024-01-06T06:57:53;43.53;;;18.43;;
8159;SDS011;27404;52.398;9.646;2024-01-06T07:00:19;39.87;;;17.93;;
8159;SDS011;27404;52.398;9.646;2024-01-06T07:02:44;45.67;;;18.43;;
8159;SDS011;27404;52.398;9.646;2024-01-06T07:05:10;43.07;;;18.53;;
8159;SDS011;27404;52.398;9.646;2024-01-06T07:07:35;44.40;;;18.93;;
8159;SDS011;27404;52.398;9.646;2024-01-06T07:10:01;41.00;;;17.73;;
8159;SDS011;27404;52.398;9.646;2024-01-06T07:12:30;42.20;;;18.17;;
8159;SDS011;27404;52.398;9.646;2024-01-06T07:14:56;40.70;;;18.33;;
8159;SDS011;27404;52.398;9.646;2024-01-06T07:17:21;46.20;;;19.80;;
8159;SDS011;27404;52.398;9.646;2024-01-06T07:19:46;45.67;;;19.43;;
8159;SDS011;27404;52.398;9.646;2024-01-06T07:22:13;45.70;;;18.03;;
8159;SDS011;27404;52.398;9.646;2024-01-06T07:24:40;45.67;;;19.17;;
8159;SDS011;27404;52.398;9.646;2024-01-06T07:27:05;50.93;;;19.77;;
8159;SDS011;27404;52.398;9.646;2024-01-06T07:29:31;40.10;;;18.03;;
8159;SDS011;27404;52.398;9.646;2024-01-06T07:31:56;46.87;;;20.27;;
8159;SDS011;27404;52.398;9.646;2024-01-06T07:34:22;48.03;;;19.70;;
8159;SDS011;27404;52.398;9.646;2024-01-06T07:36:47;48.87;;;20.03;;
8159;SDS011;27404;52.398;9.646;2024-01-06T07:39:13;45.23;;;19.37;;
8159;SDS011;27404;52.398;9.646;2024-01-06T07:41:38;48.30;;;18.97;;
8159;SDS011;27404;52.398;9.646;2024-01-06T07:44:03;47.17;;;19.10;;
8159;SDS011;27404;52.398;9.646;2024-01-06T07:46:30;47.00;;;19.03;;
8159;SDS011;27404;52.398;9.646;2024-01-06T07:48:57;45.37;;;18.97;;
8159;SDS011;27404;52.398;9.646;2024-01-06T07:51:22;44.30;;;18.17;;
8159;SDS011;27404;52.398;9.646;2024-01-06T07:53:47;46.67;;;18.00;;
8159;SDS011;27404;52.398;9.646;2024-01-06T07:56:13;47.50;;;18.60;;
8159;SDS011;27404;52.398;9.646;2024-01-06T07:58:38;40.10;;;16.93;;
8159;SDS011;27404;52.398;9.646;2024-01-06T08:01:04;46.27;;;17.40;;
8159;SDS011;27404;52.398;9.646;2024-01-06T08:03:29;44.47;;;17.80;;
8159;SDS011;27404;52.398;9.646;2024-01-06T08:05:55;41.00;;;18.03;;
8159;SDS011;27404;52.398;9.646;2024-01-06T08:08:20;42.97;;;17.37;;
8159;SDS011;27404;52.398;9.646;2024-01-06T08:10:46;40.90;;;17.73;;
8159;SDS011;27404;52.398;9.646;2024-01-06T08:13:11;39.90;;;16.07;;
8159;SDS011;27404;52.398;9.646;2024-01-06T08:15:37;41.50;;;18.23;;
8159;SDS011;27404;52.398;9.646;2024-01-06T08:18:03;41.67;;;16.63;;
8159;SDS011;27404;52.398;9.646;2024-01-06T08:20:29;43.43;;;17.60;;
8159;SDS011;27404;52.398;9.646;2024-01-06T08:22:54;54.77;;;22.60;;
8159;SDS011;27404;52.398;9.646;2024-01-06T08:25:20;43.23;;;17.87;;
8159;SDS011;27404;52.398;9.646;2024-01-06T08:27:45;45.93;;;18.93;;
8159;SDS011;27404;52.398;9.646;2024-01-06T08:30:11;38.97;;;17.70;;
8159;SDS011;27404;52.398;9.646;2024-01-06T08:32:37;43.10;;;19.77;;
8159;SDS011;27404;52.398;9.646;2024-01-06T08:35:02;40.33;;;15.97;;
8159;SDS011;27404;52.398;9.646;2024-01-06T08:37:29;32.83;;;14.90;;
8159;SDS011;27404;52.398;9.646;2024-01-06T08:39:54;35.70;;;15.73;;
8159;SDS011;27404;52.398;9.646;2024-01-06T08:42:20;36.17;;;15.53;;
8159;SDS011;27404;52.398;9.646;2024-01-06T08:44:45;38.57;;;15.63;;
8159;SDS011;27404;52.398;9.646;2024-01-06T08:47:11;35.80;;;15.57;;
8159;SDS011;27404;52.398;9.646;2024-01-06T08:49:37;35.20;;;15.97;;
8159;SDS011;27404;52.398;9.646;2024-01-06T08:52:02;36.93;;;15.57;;
8159;SDS011;27404;52.398;9.646;2024-01-06T08:54:28;38.67;;;15.87;;
8159;SDS011;27404;52.398;9.646;2024-01-06T08:56:54;36.60;;;16.10;;
8159;SDS011;27404;52.398;9.646;2024-01-06T08:59:20;33.80;;;14.40;;
8159;SDS011;27404;52.398;9.646;2024-01-06T09:01:45;30.10;;;13.87;;
8159;SDS011;27404;52.398;9.646;2024-01-06T09:04:11;30.80;;;13.87;;
8159;SDS011;27404;52.398;9.646;2024-01-06T09:06:37;32.40;;;14.60;;
8159;SDS011;27404;52.398;9.646;2024-01-06T09:09:03;30.87;;;14.37;;
8159;SDS011;27404;52.398;9.646;2024-01-06T09:11:28;32.77;;;13.77;;
8159;SDS011;27404;52.398;9.646;2024-01-06T09:13:54;29.37;;;14.53;;
8159;SDS011;27404;52.398;9.646;2024-01-06T09:16:19;42.33;;;18.73;;
8159;SDS011;27404;52.398;9.646;2024-01-06T09:18:45;31.47;;;15.30;;
8159;SDS011;27404;52.398;9.646;2024-01-06T09:21:10;33.73;;;16.87;;
8159;SDS011;27404;52.398;9.646;2024-01-06T09:23:36;37.47;;;17.43;;
8159;SDS011;27404;52.398;9.646;2024-01-06T09:26:01;28.77;;;14.13;;
8159;SDS011;27404;52.398;9.646;2024-01-06T09:28:28;31.37;;;15.77;;
8159;SDS011;27404;52.398;9.646;2024-01-06T09:30:53;32.17;;;13.63;;
8159;SDS011;27404;52.398;9.646;2024-01-06T09:33:21;26.60;;;13.80;;
8159;SDS011;27404;52.398;9.646;2024-01-06T09:35:47;32.53;;;13.93;;
8159;SDS011;27404;52.398;9.646;2024-01-06T09:38:12;25.63;;;12.70;;
8159;SDS011;27404;52.398;9.646;2024-01-06T09:40:41;28.07;;;13.43;;
8159;SDS011;27404;52.398;9.646;2024-01-06T09:43:12;34.27;;;14.30;;
8159;SDS011;27404;52.398;9.646;2024-01-06T09:45:38;29.37;;;13.57;;
8159;SDS011;27404;52.398;9.646;2024-01-06T09:48:11;27.87;;;14.20;;
8159;SDS011;27404;52.398;9.646;2024-01-06T09:50:41;27.60;;;13.60;;
8159;SDS011;27404;52.398;9.646;2024-01-06T09:53:10;25.90;;;12.97;;
8159;SDS011;27404;52.398;9.646;2024-01-06T09:55:37;27.17;;;13.77;;
8159;SDS011;27404;52.398;9.646;2024-01-06T09:58:03;26.70;;;13.17;;
8159;SDS011;27404;52.398;9.646;2024-01-06T10:00:31;29.03;;;13.40;;
8159;SDS011;27404;52.398;9.646;2024-01-06T10:02:56;25.03;;;12.47;;
8159;SDS011;27404;52.398;9.646;2024-01-06T10:05:23;25.10;;;13.17;;
8159;SDS011;27404;52.398;9.646;2024-01-06T10:07:48;28.83;;;14.10;;
8159;SDS011;27404;52.398;9.646;2024-01-06T10:10:14;27.90;;;13.17;;
8159;SDS011;27404;52.398;9.646;2024-01-06T10:12:40;25.60;;;12.87;;
8159;SDS011;27404;52.398;9.646;2024-01-06T10:15:07;39.53;;;18.73;;
8159;SDS011;27404;52.398;9.646;2024-01-06T10:17:37;28.90;;;14.87;;
8159;SDS011;27404;52.398;9.646;2024-01-06T10:20:09;28.80;;;13.70;;
8159;SDS011;27404;52.398;9.646;2024-01-06T10:22:37;29.00;;;14.77;;
8159;SDS011;27404;52.398;9.646;2024-01-06T10:25:06;23.37;;;13.23;;
8159;SDS011;27404;52.398;9.646;2024-01-06T10:27:39;25.00;;;13.17;;
8159;SDS011;27404;52.398;9.646;2024-01-06T10:30:06;28.17;;;14.73;;
8159;SDS011;27404;52.398;9.646;2024-01-06T10:32:33;25.57;;;12.40;;
8159;SDS011;27404;52.398;9.646;2024-01-06T10:35:02;24.80;;;11.93;;
8159;SDS011;27404;52.398;9.646;2024-01-06T10:37:29;25.67;;;13.10;;
8159;SDS011;27404;52.398;9.646;2024-01-06T10:40:06;24.37;;;12.43;;
8159;SDS011;27404;52.398;9.646;2024-01-06T10:42:32;22.80;;;11.73;;
8159;SDS011;27404;52.398;9.646;2024-01-06T10:44:58;21.33;;;11.30;;
8159;SDS011;27404;52.398;9.646;2024-01-06T10:47:24;20.90;;;10.93;;
8159;SDS011;27404;52.398;9.646;2024-01-06T10:49:51;22.23;;;11.23;;
8159;SDS011;27404;52.398;9.646;2024-01-06T10:52:19;26.17;;;12.00;;
8159;SDS011;27404;52.398;9.646;2024-01-06T10:54:46;21.37;;;10.87;;
8159;SDS011;27404;52.398;9.646;2024-01-06T10:57:16;21.23;;;11.27;;
8159;SDS011;27404;52.398;9.646;2024-01-06T10:59:43;21.33;;;10.67;;
8159;SDS011;27404;52.398;9.646;2024-01-06T11:02:13;22.37;;;11.50;;
8159;SDS011;27404;52.398;9.646;2024-01-06T11:04:41;24.53;;;11.60;;
8159;SDS011;27404;52.398;9.646;2024-01-06T11:07:08;20.37;;;11.20;;
8159;SDS011;27404;52.398;9.646;2024-01-06T11:09:34;25.23;;;10.87;;
8159;SDS011;27404;52.398;9.646;2024-01-06T11:12:04;26.10;;;10.67;;
8159;SDS011;27404;52.398;9.646;2024-01-06T11:14:35;20.67;;;10.53;;
8159;SDS011;27404;52.398;9.646;2024-01-06T11:17:02;20.87;;;10.80;;
8159;SDS011;27404;52.398;9.646;2024-01-06T11:24:50;20.57;;;11.50;;
8159;SDS011;27404;52.398;9.646;2024-01-06T11:27:22;20.97;;;11.13;;
8159;SDS011;27404;52.398;9.646;2024-01-06T11:29:53;22.30;;;11.10;;
8159;SDS011;27404;52.398;9.646;2024-01-06T11:32:29;25.03;;;11.33;;
8159;SDS011;27404;52.398;9.646;2024-01-06T11:35:19;22.97;;;11.47;;
8159;SDS011;27404;52.398;9.646;2024-01-06T11:40:15;22.87;;;11.90;;
8159;SDS011;27404;52.398;9.646;2024-01-06T11:42:41;24.83;;;12.30;;
8159;SDS011;27404;52.398;9.646;2024-01-06T11:45:07;29.93;;;13.80;;
8159;SDS011;27404;52.398;9.646;2024-01-06T11:47:34;24.90;;;14.17;;
8159;SDS011;27404;52.398;9.646;2024-01-06T11:50:00;32.17;;;14.60;;
8159;SDS011;27404;52.398;9.646;2024-01-06T11:52:33;25.43;;;12.77;;
8159;SDS011;27404;52.398;9.646;2024-01-06T11:54:59;24.40;;;12.93;;
8159;SDS011;27404;52.398;9.646;2024-01-06T11:57:28;27.43;;;12.90;;
8159;SDS011;27404;52.398;9.646;2024-01-06T11:59:54;27.17;;;12.83;;
8159;SDS011;27404;52.398;9.646;2024-01-06T12:02:20;27.07;;;13.00;;
8159;SDS011;27404;52.398;9.646;2024-01-06T12:04:49;26.77;;;12.93;;
8159;SDS011;27404;52.398;9.646;2024-01-06T12:07:19;28.80;;;14.10;;
8159;SDS011;27404;52.398;9.646;2024-01-06T12:09:48;25.67;;;13.13;;
8159;SDS011;27404;52.398;9.646;2024-01-06T12:12:17;26.03;;;11.07;;
8159;SDS011;27404;52.398;9.646;2024-01-06T12:14:43;26.90;;;12.50;;
8159;SDS011;27404;52.398;9.646;2024-01-06T12:17:10;29.63;;;12.93;;
8159;SDS011;27404;52.398;9.646;2024-01-06T12:19:38;29.40;;;13.00;;
8159;SDS011;27404;52.398;9.646;2024-01-06T12:22:04;26.40;;;12.47;;
8159;SDS011;27404;52.398;9.646;2024-01-06T12:24:30;30.47;;;14.37;;
8159;SDS011;27404;52.398;9.646;2024-01-06T12:26:56;26.93;;;13.23;;
8159;SDS011;27404;52.398;9.646;2024-01-06T12:29:28;29.00;;;13.30;;
8159;SDS011;27404;52.398;9.646;2024-01-06T12:31:54;27.90;;;13.60;;
8159;SDS011;27404;52.398;9.646;2024-01-06T12:34:20;30.00;;;14.10;;
8159;SDS011;27404;52.398;9.646;2024-01-06T12:36:46;27.77;;;12.77;;
8159;SDS011;27404;52.398;9.646;2024-01-06T12:39:12;28.23;;;12.80;;
8159;SDS011;27404;52.398;9.646;2024-01-06T12:41:42;28.07;;;12.83;;
8159;SDS011;27404;52.398;9.646;2024-01-06T12:44:08;32.93;;;14.57;;
8159;SDS011;27404;52.398;9.646;2024-01-06T12:46:34;29.70;;;13.97;;
8159;SDS011;27404;52.398;9.646;2024-01-06T12:48:59;28.60;;;13.27;;
8159;SDS011;27404;52.398;9.646;2024-01-06T12:51:25;28.97;;;13.87;;
8159;SDS011;27404;52.398;9.646;2024-01-06T12:53:50;30.83;;;13.13;;
8159;SDS011;27404;52.398;9.646;2024-01-06T12:56:16;34.20;;;14.40;;
8159;SDS011;27404;52.398;9.646;2024-01-06T12:58:42;32.37;;;13.50;;
8159;SDS011;27404;52.398;9.646;2024-01-06T13:01:07;30.30;;;14.33;;
8159;SDS011;27404;52.398;9.646;2024-01-06T13:03:33;33.50;;;14.80;;
8159;SDS011;27404;52.398;9.646;2024-01-06T13:05:59;31.33;;;14.43;;
8159;SDS011;27404;52.398;9.646;2024-01-06T13:08:25;34.07;;;14.77;;
8159;SDS011;27404;52.398;9.646;2024-01-06T13:10:51;31.67;;;14.23;;
8159;SDS011;27404;52.398;9.646;2024-01-06T13:13:17;31.70;;;14.73;;
8159;SDS011;27404;52.398;9.646;2024-01-06T13:15:42;33.47;;;14.57;;
8159;SDS011;27404;52.398;9.646;2024-01-06T13:18:08;31.23;;;12.97;;
8159;SDS011;27404;52.398;9.646;2024-01-06T13:20:33;29.73;;;13.50;;
8159;SDS011;27404;52.398;9.646;2024-01-06T13:22:58;34.20;;;14.03;;
8159;SDS011;27404;52.398;9.646;2024-01-06T13:25:24;31.43;;;13.57;;
8159;SDS011;27404;52.398;9.646;2024-01-06T13:27:49;32.83;;;15.27;;
8159;SDS011;27404;52.398;9.646;2024-01-06T13:30:15;31.57;;;14.47;;
8159;SDS011;27404;52.398;9.646;2024-01-06T13:32:41;32.07;;;13.87;;
8159;SDS011;27404;52.398;9.646;2024-01-06T13:35:06;29.73;;;13.97;;
8159;SDS011;27404;52.398;9.646;2024-01-06T13:37:32;34.13;;;16.37;;
8159;SDS011;27404;52.398;9.646;2024-01-06T13:39:58;31.93;;;14.17;;
8159;SDS011;27404;52.398;9.646;2024-01-06T13:42:23;33.20;;;15.40;;
8159;SDS011;27404;52.398;9.646;2024-01-06T13:44:49;30.83;;;13.93;;
8159;SDS011;27404;52.398;9.646;2024-01-06T13:47:15;31.47;;;14.33;;
8159;SDS011;27404;52.398;9.646;2024-01-06T13:49:40;25.63;;;12.83;;
8159;SDS011;27404;52.398;9.646;2024-01-06T13:52:06;33.80;;;14.70;;
8159;SDS011;27404;52.398;9.646;2024-01-06T13:54:35;33.60;;;14.80;;
8159;SDS011;27404;52.398;9.646;2024-01-06T13:57:00;30.77;;;14.63;;
8159;SDS011;27404;52.398;9.646;2024-01-06T13:59:26;33.10;;;14.13;;
8159;SDS011;27404;52.398;9.646;2024-01-06T14:01:52;31.40;;;14.43;;
8159;SDS011;27404;52.398;9.646;2024-01-06T14:04:20;30.70;;;13.90;;
8159;SDS011;27404;52.398;9.646;2024-01-06T14:06:48;32.07;;;14.10;;
8159;SDS011;27404;52.398;9.646;2024-01-06T14:09:20;32.47;;;14.90;;
8159;SDS011;27404;52.398;9.646;2024-01-06T14:11:46;29.40;;;14.87;;
8159;SDS011;27404;52.398;9.646;2024-01-06T14:14:12;28.93;;;13.87;;
8159;SDS011;27404;52.398;9.646;2024-01-06T14:16:37;31.80;;;15.57;;
8159;SDS011;27404;52.398;9.646;2024-01-06T14:19:02;28.97;;;13.83;;
8159;SDS011;27404;52.398;9.646;2024-01-06T14:21:28;29.50;;;13.83;;
8159;SDS011;27404;52.398;9.646;2024-01-06T14:23:53;29.47;;;12.83;;
8159;SDS011;27404;52.398;9.646;2024-01-06T14:26:19;25.67;;;13.37;;
8159;SDS011;27404;52.398;9.646;2024-01-06T14:28:45;27.23;;;13.40;;
8159;SDS011;27404;52.398;9.646;2024-01-06T14:31:11;29.13;;;13.30;;
8159;SDS011;27404;52.398;9.646;2024-01-06T14:33:37;30.93;;;14.50;;
8159;SDS011;27404;52.398;9.646;2024-01-06T14:36:02;31.17;;;14.63;;